sensor_id;sensor_type;location;lat;lon;timestamp;P1;durP1;ratioP1;P2;durP2;ratioP2
75542;SDS011;64129;53.508;10.476;2023-06-14T00:02:21;4.53;;;2.30;;
75542;SDS011;64129;53.508;10.476;2023-06-14T00:04:48;5.72;;;2.25;;
75542;SDS011;64129;53.508;10.476;2023-06-14T00:07:17;2.83;;;1.83;;
75542;SDS011;64129;53.508;10.476;2023-06-14T00:09:45;5.20;;;2.00;;
75542;SDS011;64129;53.508;10.476;2023-06-14T00:12:11;5.43;;;2.22;;
75542;SDS011;64129;53.508;10.476;2023-06-14T00:14:38;3.85;;;2.17;;
75542;SDS011;64129;53.508;10.476;2023-06-14T00:17:05;2.83;;;1.88;;
75542;SDS011;64129;53.508;10.476;2023-06-14T00:19:33;3.20;;;2.13;;
75542;SDS011;64129;53.508;10.476;2023-06-14T00:22:02;5.88;;;2.20;;
75542;SDS011;64129;53.508;10.476;2023-06-14T00:24:29;4.43;;;2.08;;
75542;SDS011;64129;53.508;10.476;2023-06-14T00:26:56;4.78;;;2.13;;
75542;SDS011;64129;53.508;10.476;2023-06-14T00:29:23;4.07;;;2.33;;
75542;SDS011;64129;53.508;10.476;2023-06-14T00:31:49;3.47;;;2.30;;
75542;SDS011;64129;53.508;10.476;2023-06-14T00:34:17;2.78;;;2.33;;
75542;SDS011;64129;53.508;10.476;2023-06-14T00:36:44;3.40;;;2.33;;
75542;SDS011;64129;53.508;10.476;2023-06-14T00:39:13;3.05;;;2.22;;
75542;SDS011;64129;53.508;10.476;2023-06-14T00:41:39;4.10;;;2.30;;
75542;SDS011;64129;53.508;10.476;2023-06-14T00:44:06;2.55;;;1.95;;
75542;SDS011;64129;53.508;10.476;2023-06-14T00:46:33;4.22;;;1.92;;
75542;SDS011;64129;53.508;10.476;2023-06-14T00:49:00;3.00;;;2.20;;
75542;SDS011;64129;53.508;10.476;2023-06-14T00:51:28;4.13;;;2.28;;
75542;SDS011;64129;53.508;10.476;2023-06-14T00:53:54;4.30;;;2.08;;
75542;SDS011;64129;53.508;10.476;2023-06-14T00:56:21;2.85;;;1.95;;
75542;SDS011;64129;53.508;10.476;2023-06-14T00:58:50;5.75;;;2.50;;
75542;SDS011;64129;53.508;10.476;2023-06-14T01:01:17;4.05;;;2.08;;
75542;SDS011;64129;53.508;10.476;2023-06-14T01:03:44;4.75;;;2.22;;
75542;SDS011;64129;53.508;10.476;2023-06-14T01:06:19;4.43;;;1.95;;
75542;SDS011;64129;53.508;10.476;2023-06-14T01:14:47;3.05;;;2.17;;
75542;SDS011;64129;53.508;10.476;2023-06-14T01:17:18;2.67;;;2.03;;
75542;SDS011;64129;53.508;10.476;2023-06-14T01:19:47;3.25;;;2.08;;
75542;SDS011;64129;53.508;10.476;2023-06-14T01:22:14;3.58;;;2.20;;
75542;SDS011;64129;53.508;10.476;2023-06-14T01:24:40;2.92;;;2.28;;
75542;SDS011;64129;53.508;10.476;2023-06-14T01:27:11;3.53;;;2.20;;
75542;SDS011;64129;53.508;10.476;2023-06-14T01:32:13;6.82;;;2.60;;
75542;SDS011;64129;53.508;10.476;2023-06-14T01:34:40;6.53;;;2.70;;
75542;SDS011;64129;53.508;10.476;2023-06-14T01:37:08;3.60;;;2.55;;
75542;SDS011;64129;53.508;10.476;2023-06-14T01:39:35;3.42;;;2.35;;
75542;SDS011;64129;53.508;10.476;2023-06-14T01:42:02;2.97;;;2.30;;
75542;SDS011;64129;53.508;10.476;2023-06-14T01:44:30;2.83;;;2.30;;
75542;SDS011;64129;53.508;10.476;2023-06-14T01:47:00;4.00;;;2.58;;
75542;SDS011;64129;53.508;10.476;2023-06-14T01:49:27;3.13;;;2.22;;
75542;SDS011;64129;53.508;10.476;2023-06-14T01:51:54;3.50;;;2.63;;
75542;SDS011;64129;53.508;10.476;2023-06-14T01:54:20;4.82;;;2.50;;
75542;SDS011;64129;53.508;10.476;2023-06-14T01:56:48;5.07;;;2.75;;
75542;SDS011;64129;53.508;10.476;2023-06-14T01:59:14;6.70;;;2.70;;
75542;SDS011;64129;53.508;10.476;2023-06-14T02:01:42;4.50;;;2.50;;
75542;SDS011;64129;53.508;10.476;2023-06-14T02:04:09;4.10;;;2.50;;
75542;SDS011;64129;53.508;10.476;2023-06-14T02:06:36;3.35;;;2.30;;
75542;SDS011;64129;53.508;10.476;2023-06-14T02:09:03;5.35;;;2.65;;
75542;SDS011;64129;53.508;10.476;2023-06-14T02:11:30;3.85;;;2.25;;
75542;SDS011;64129;53.508;10.476;2023-06-14T02:13:57;3.60;;;3.13;;
75542;SDS011;64129;53.508;10.476;2023-06-14T02:16:26;3.28;;;2.60;;
75542;SDS011;64129;53.508;10.476;2023-06-14T02:18:54;5.55;;;3.35;;
75542;SDS011;64129;53.508;10.476;2023-06-14T02:21:22;5.30;;;2.65;;
75542;SDS011;64129;53.508;10.476;2023-06-14T02:23:49;4.88;;;2.85;;
75542;SDS011;64129;53.508;10.476;2023-06-14T02:26:16;5.05;;;2.50;;
75542;SDS011;64129;53.508;10.476;2023-06-14T02:28:42;3.97;;;2.50;;
75542;SDS011;64129;53.508;10.476;2023-06-14T02:31:09;5.72;;;2.53;;
75542;SDS011;64129;53.508;10.476;2023-06-14T02:33:35;5.22;;;2.80;;
75542;SDS011;64129;53.508;10.476;2023-06-14T02:36:02;3.38;;;3.03;;
75542;SDS011;64129;53.508;10.476;2023-06-14T02:38:29;4.53;;;2.92;;
75542;SDS011;64129;53.508;10.476;2023-06-14T02:40:56;4.72;;;2.72;;
75542;SDS011;64129;53.508;10.476;2023-06-14T02:43:22;4.43;;;2.60;;
75542;SDS011;64129;53.508;10.476;2023-06-14T02:45:49;2.88;;;2.50;;
75542;SDS011;64129;53.508;10.476;2023-06-14T02:48:16;4.03;;;2.55;;
75542;SDS011;64129;53.508;10.476;2023-06-14T02:50:42;3.17;;;2.63;;
75542;SDS011;64129;53.508;10.476;2023-06-14T02:53:09;4.97;;;3.03;;
75542;SDS011;64129;53.508;10.476;2023-06-14T02:55:36;3.90;;;2.65;;
75542;SDS011;64129;53.508;10.476;2023-06-14T02:58:06;4.68;;;3.30;;
75542;SDS011;64129;53.508;10.476;2023-06-14T03:00:33;4.97;;;2.95;;
75542;SDS011;64129;53.508;10.476;2023-06-14T03:03:01;6.20;;;2.90;;
75542;SDS011;64129;53.508;10.476;2023-06-14T03:05:28;4.13;;;3.30;;
75542;SDS011;64129;53.508;10.476;2023-06-14T03:07:55;4.78;;;2.85;;
75542;SDS011;64129;53.508;10.476;2023-06-14T03:10:22;5.85;;;3.78;;
75542;SDS011;64129;53.508;10.476;2023-06-14T03:12:50;3.65;;;2.40;;
75542;SDS011;64129;53.508;10.476;2023-06-14T03:15:19;4.03;;;2.80;;
75542;SDS011;64129;53.508;10.476;2023-06-14T03:17:47;4.68;;;2.50;;
75542;SDS011;64129;53.508;10.476;2023-06-14T03:20:15;2.88;;;2.58;;
75542;SDS011;64129;53.508;10.476;2023-06-14T03:22:42;5.00;;;2.78;;
75542;SDS011;64129;53.508;10.476;2023-06-14T03:25:12;4.28;;;3.08;;
75542;SDS011;64129;53.508;10.476;2023-06-14T03:27:41;5.55;;;3.30;;
75542;SDS011;64129;53.508;10.476;2023-06-14T03:30:08;4.80;;;2.90;;
75542;SDS011;64129;53.508;10.476;2023-06-14T03:32:35;3.63;;;2.63;;
75542;SDS011;64129;53.508;10.476;2023-06-14T03:35:02;4.82;;;2.90;;
75542;SDS011;64129;53.508;10.476;2023-06-14T03:37:30;3.92;;;2.70;;
75542;SDS011;64129;53.508;10.476;2023-06-14T03:39:56;6.40;;;3.20;;
75542;SDS011;64129;53.508;10.476;2023-06-14T03:42:24;5.10;;;3.08;;
75542;SDS011;64129;53.508;10.476;2023-06-14T03:44:52;4.63;;;2.85;;
75542;SDS011;64129;53.508;10.476;2023-06-14T03:47:21;4.40;;;3.35;;
75542;SDS011;64129;53.508;10.476;2023-06-14T03:49:48;3.60;;;2.88;;
75542;SDS011;64129;53.508;10.476;2023-06-14T03:52:14;5.03;;;3.33;;
75542;SDS011;64129;53.508;10.476;2023-06-14T03:54:44;4.63;;;3.30;;
75542;SDS011;64129;53.508;10.476;2023-06-14T03:57:16;6.85;;;3.65;;
75542;SDS011;64129;53.508;10.476;2023-06-14T03:59:45;5.03;;;3.03;;
75542;SDS011;64129;53.508;10.476;2023-06-14T04:02:12;8.02;;;3.58;;
75542;SDS011;64129;53.508;10.476;2023-06-14T04:04:43;4.75;;;3.42;;
75542;SDS011;64129;53.508;10.476;2023-06-14T04:07:12;8.02;;;3.30;;
75542;SDS011;64129;53.508;10.476;2023-06-14T04:09:39;4.03;;;2.67;;
75542;SDS011;64129;53.508;10.476;2023-06-14T04:12:07;4.15;;;3.05;;
75542;SDS011;64129;53.508;10.476;2023-06-14T04:14:38;5.47;;;3.42;;
75542;SDS011;64129;53.508;10.476;2023-06-14T04:17:07;4.22;;;2.67;;
75542;SDS011;64129;53.508;10.476;2023-06-14T04:19:36;5.03;;;3.67;;
75542;SDS011;64129;53.508;10.476;2023-06-14T04:22:02;5.60;;;2.80;;
75542;SDS011;64129;53.508;10.476;2023-06-14T04:24:33;7.05;;;3.08;;
75542;SDS011;64129;53.508;10.476;2023-06-14T04:27:01;6.68;;;3.63;;
75542;SDS011;64129;53.508;10.476;2023-06-14T04:29:29;5.72;;;3.38;;
75542;SDS011;64129;53.508;10.476;2023-06-14T04:32:00;4.30;;;3.28;;
75542;SDS011;64129;53.508;10.476;2023-06-14T04:34:28;5.65;;;3.30;;
75542;SDS011;64129;53.508;10.476;2023-06-14T04:36:59;6.13;;;2.95;;
75542;SDS011;64129;53.508;10.476;2023-06-14T04:39:34;5.15;;;3.28;;
75542;SDS011;64129;53.508;10.476;2023-06-14T04:42:01;5.05;;;3.47;;
75542;SDS011;64129;53.508;10.476;2023-06-14T04:44:30;7.45;;;3.42;;
75542;SDS011;64129;53.508;10.476;2023-06-14T04:47:00;8.35;;;4.00;;
75542;SDS011;64129;53.508;10.476;2023-06-14T04:49:27;6.55;;;3.60;;
75542;SDS011;64129;53.508;10.476;2023-06-14T04:51:54;5.28;;;3.45;;
75542;SDS011;64129;53.508;10.476;2023-06-14T04:54:27;6.97;;;3.90;;
75542;SDS011;64129;53.508;10.476;2023-06-14T04:56:54;5.53;;;3.75;;
75542;SDS011;64129;53.508;10.476;2023-06-14T04:59:24;5.57;;;3.13;;
75542;SDS011;64129;53.508;10.476;2023-06-14T05:01:51;5.63;;;3.20;;
75542;SDS011;64129;53.508;10.476;2023-06-14T05:04:19;5.03;;;3.30;;
75542;SDS011;64129;53.508;10.476;2023-06-14T05:06:47;6.40;;;3.33;;
75542;SDS011;64129;53.508;10.476;2023-06-14T05:09:14;6.47;;;3.65;;
75542;SDS011;64129;53.508;10.476;2023-06-14T05:11:44;4.40;;;3.00;;
75542;SDS011;64129;53.508;10.476;2023-06-14T05:14:11;6.07;;;3.45;;
75542;SDS011;64129;53.508;10.476;2023-06-14T05:16:38;5.85;;;3.03;;
75542;SDS011;64129;53.508;10.476;2023-06-14T05:19:06;5.70;;;3.20;;
75542;SDS011;64129;53.508;10.476;2023-06-14T05:21:33;5.60;;;3.13;;
75542;SDS011;64129;53.508;10.476;2023-06-14T05:24:03;6.55;;;3.28;;
75542;SDS011;64129;53.508;10.476;2023-06-14T05:26:29;4.20;;;3.22;;
75542;SDS011;64129;53.508;10.476;2023-06-14T05:28:56;7.68;;;3.22;;
75542;SDS011;64129;53.508;10.476;2023-06-14T05:31:24;5.88;;;2.97;;
75542;SDS011;64129;53.508;10.476;2023-06-14T05:33:52;4.50;;;3.55;;
75542;SDS011;64129;53.508;10.476;2023-06-14T05:36:19;8.02;;;3.38;;
75542;SDS011;64129;53.508;10.476;2023-06-14T05:38:47;5.90;;;3.78;;
75542;SDS011;64129;53.508;10.476;2023-06-14T05:41:14;6.28;;;3.13;;
75542;SDS011;64129;53.508;10.476;2023-06-14T05:43:40;6.85;;;3.30;;
75542;SDS011;64129;53.508;10.476;2023-06-14T05:46:07;5.45;;;3.35;;
75542;SDS011;64129;53.508;10.476;2023-06-14T05:48:34;6.15;;;3.28;;
75542;SDS011;64129;53.508;10.476;2023-06-14T05:51:00;4.85;;;2.90;;
75542;SDS011;64129;53.508;10.476;2023-06-14T05:53:27;6.13;;;3.40;;
75542;SDS011;64129;53.508;10.476;2023-06-14T05:55:54;5.57;;;2.80;;
75542;SDS011;64129;53.508;10.476;2023-06-14T05:58:21;5.03;;;2.92;;
75542;SDS011;64129;53.508;10.476;2023-06-14T06:00:48;4.28;;;3.03;;
75542;SDS011;64129;53.508;10.476;2023-06-14T06:03:15;5.90;;;2.90;;
75542;SDS011;64129;53.508;10.476;2023-06-14T06:05:41;3.63;;;2.58;;
75542;SDS011;64129;53.508;10.476;2023-06-14T06:08:08;4.50;;;2.63;;
75542;SDS011;64129;53.508;10.476;2023-06-14T06:10:35;7.03;;;3.03;;
75542;SDS011;64129;53.508;10.476;2023-06-14T06:13:01;3.90;;;2.60;;
75542;SDS011;64129;53.508;10.476;2023-06-14T06:15:28;6.82;;;2.90;;
75542;SDS011;64129;53.508;10.476;2023-06-14T06:17:54;4.70;;;2.42;;
75542;SDS011;64129;53.508;10.476;2023-06-14T06:20:22;5.32;;;2.70;;
75542;SDS011;64129;53.508;10.476;2023-06-14T06:22:54;7.78;;;3.35;;
75542;SDS011;64129;53.508;10.476;2023-06-14T06:25:21;5.18;;;2.78;;
75542;SDS011;64129;53.508;10.476;2023-06-14T06:27:48;3.75;;;2.50;;
75542;SDS011;64129;53.508;10.476;2023-06-14T06:30:15;4.80;;;2.95;;
75542;SDS011;64129;53.508;10.476;2023-06-14T06:32:42;5.40;;;2.38;;
75542;SDS011;64129;53.508;10.476;2023-06-14T06:35:09;4.63;;;2.25;;
75542;SDS011;64129;53.508;10.476;2023-06-14T06:37:37;4.95;;;2.80;;
75542;SDS011;64129;53.508;10.476;2023-06-14T06:40:04;4.05;;;2.47;;
75542;SDS011;64129;53.508;10.476;2023-06-14T06:42:32;2.88;;;2.10;;
75542;SDS011;64129;53.508;10.476;2023-06-14T06:45:02;4.35;;;2.60;;
75542;SDS011;64129;53.508;10.476;2023-06-14T06:47:29;3.83;;;2.55;;
75542;SDS011;64129;53.508;10.476;2023-06-14T06:49:55;3.40;;;2.60;;
75542;SDS011;64129;53.508;10.476;2023-06-14T06:52:22;3.03;;;2.35;;
75542;SDS011;64129;53.508;10.476;2023-06-14T06:54:49;4.25;;;2.55;;
75542;SDS011;64129;53.508;10.476;2023-06-14T06:57:16;3.13;;;2.40;;
75542;SDS011;64129;53.508;10.476;2023-06-14T06:59:43;3.38;;;2.70;;
75542;SDS011;64129;53.508;10.476;2023-06-14T07:02:10;3.60;;;2.60;;
75542;SDS011;64129;53.508;10.476;2023-06-14T07:04:36;4.97;;;2.50;;
75542;SDS011;64129;53.508;10.476;2023-06-14T07:07:03;2.65;;;2.25;;
75542;SDS011;64129;53.508;10.476;2023-06-14T07:09:30;4.35;;;2.30;;
75542;SDS011;64129;53.508;10.476;2023-06-14T07:11:56;3.38;;;2.20;;
75542;SDS011;64129;53.508;10.476;2023-06-14T07:14:23;2.78;;;2.45;;
75542;SDS011;64129;53.508;10.476;2023-06-14T07:16:50;3.72;;;2.53;;
75542;SDS011;64129;53.508;10.476;2023-06-14T07:19:17;4.80;;;2.30;;
75542;SDS011;64129;53.508;10.476;2023-06-14T07:21:44;6.97;;;2.35;;
75542;SDS011;64129;53.508;10.476;2023-06-14T07:24:10;4.68;;;2.40;;
75542;SDS011;64129;53.508;10.476;2023-06-14T07:26:38;4.07;;;2.42;;
75542;SDS011;64129;53.508;10.476;2023-06-14T07:29:04;3.03;;;2.05;;
75542;SDS011;64129;53.508;10.476;2023-06-14T07:31:31;2.60;;;2.30;;
75542;SDS011;64129;53.508;10.476;2023-06-14T07:33:57;2.90;;;2.33;;
75542;SDS011;64129;53.508;10.476;2023-06-14T07:36:24;2.60;;;2.17;;
75542;SDS011;64129;53.508;10.476;2023-06-14T07:38:51;2.72;;;2.22;;
75542;SDS011;64129;53.508;10.476;2023-06-14T07:41:17;3.28;;;2.38;;
75542;SDS011;64129;53.508;10.476;2023-06-14T07:43:44;3.78;;;2.50;;
75542;SDS011;64129;53.508;10.476;2023-06-14T07:46:11;3.42;;;2.42;;
75542;SDS011;64129;53.508;10.476;2023-06-14T07:48:38;5.43;;;2.20;;
75542;SDS011;64129;53.508;10.476;2023-06-14T07:51:04;3.05;;;2.35;;
75542;SDS011;64129;53.508;10.476;2023-06-14T07:53:31;3.92;;;2.55;;
75542;SDS011;64129;53.508;10.476;2023-06-14T07:55:58;3.88;;;2.65;;
75542;SDS011;64129;53.508;10.476;2023-06-14T07:58:26;3.72;;;2.40;;
75542;SDS011;64129;53.508;10.476;2023-06-14T08:00:53;2.92;;;2.20;;
75542;SDS011;64129;53.508;10.476;2023-06-14T08:03:19;4.57;;;2.33;;
75542;SDS011;64129;53.508;10.476;2023-06-14T08:05:46;2.83;;;2.22;;
75542;SDS011;64129;53.508;10.476;2023-06-14T08:08:13;3.53;;;2.72;;
75542;SDS011;64129;53.508;10.476;2023-06-14T08:10:39;3.70;;;2.67;;
75542;SDS011;64129;53.508;10.476;2023-06-14T08:13:06;3.47;;;2.00;;
75542;SDS011;64129;53.508;10.476;2023-06-14T08:15:33;2.95;;;2.25;;
75542;SDS011;64129;53.508;10.476;2023-06-14T08:18:00;3.90;;;2.60;;
75542;SDS011;64129;53.508;10.476;2023-06-14T08:20:27;4.45;;;2.40;;
75542;SDS011;64129;53.508;10.476;2023-06-14T08:22:54;2.70;;;2.10;;
75542;SDS011;64129;53.508;10.476;2023-06-14T08:25:23;3.08;;;2.10;;
75542;SDS011;64129;53.508;10.476;2023-06-14T08:27:49;3.20;;;2.17;;
75542;SDS011;64129;53.508;10.476;2023-06-14T08:30:16;2.70;;;2.13;;
75542;SDS011;64129;53.508;10.476;2023-06-14T08:32:43;4.85;;;2.22;;
75542;SDS011;64129;53.508;10.476;2023-06-14T08:35:10;4.32;;;2.20;;
75542;SDS011;64129;53.508;10.476;2023-06-14T08:37:39;3.08;;;2.35;;
75542;SDS011;64129;53.508;10.476;2023-06-14T08:40:18;4.97;;;2.67;;
75542;SDS011;64129;53.508;10.476;2023-06-14T08:42:48;4.07;;;2.33;;
75542;SDS011;64129;53.508;10.476;2023-06-14T08:47:55;2.40;;;1.90;;
75542;SDS011;64129;53.508;10.476;2023-06-14T08:50:26;4.40;;;2.40;;
75542;SDS011;64129;53.508;10.476;2023-06-14T08:52:57;3.22;;;2.40;;
75542;SDS011;64129;53.508;10.476;2023-06-14T08:55:30;4.68;;;2.38;;
75542;SDS011;64129;53.508;10.476;2023-06-14T08:57:58;3.03;;;2.05;;
75542;SDS011;64129;53.508;10.476;2023-06-14T09:00:25;3.88;;;2.28;;
75542;SDS011;64129;53.508;10.476;2023-06-14T09:02:53;3.80;;;2.47;;
75542;SDS011;64129;53.508;10.476;2023-06-14T09:05:24;4.03;;;2.47;;
75542;SDS011;64129;53.508;10.476;2023-06-14T09:07:51;2.97;;;2.47;;
75542;SDS011;64129;53.508;10.476;2023-06-14T09:10:18;6.85;;;2.38;;
75542;SDS011;64129;53.508;10.476;2023-06-14T09:12:47;4.13;;;2.45;;
75542;SDS011;64129;53.508;10.476;2023-06-14T09:15:13;3.47;;;2.45;;
75542;SDS011;64129;53.508;10.476;2023-06-14T09:17:40;6.88;;;2.63;;
75542;SDS011;64129;53.508;10.476;2023-06-14T09:20:07;3.28;;;2.40;;
75542;SDS011;64129;53.508;10.476;2023-06-14T09:22:39;5.20;;;2.30;;
75542;SDS011;64129;53.508;10.476;2023-06-14T09:25:06;3.80;;;2.25;;
75542;SDS011;64129;53.508;10.476;2023-06-14T09:27:33;4.22;;;2.17;;
75542;SDS011;64129;53.508;10.476;2023-06-14T09:30:04;4.18;;;2.17;;
75542;SDS011;64129;53.508;10.476;2023-06-14T09:32:35;4.38;;;2.33;;
75542;SDS011;64129;53.508;10.476;2023-06-14T09:35:04;3.55;;;2.70;;
75542;SDS011;64129;53.508;10.476;2023-06-14T09:37:33;3.13;;;2.50;;
75542;SDS011;64129;53.508;10.476;2023-06-14T09:40:00;3.97;;;2.35;;
75542;SDS011;64129;53.508;10.476;2023-06-14T09:42:29;6.50;;;3.03;;
75542;SDS011;64129;53.508;10.476;2023-06-14T09:44:56;4.82;;;2.47;;
75542;SDS011;64129;53.508;10.476;2023-06-14T09:47:23;4.57;;;2.70;;
75542;SDS011;64129;53.508;10.476;2023-06-14T09:49:51;2.42;;;2.20;;
75542;SDS011;64129;53.508;10.476;2023-06-14T09:52:21;4.15;;;2.17;;
75542;SDS011;64129;53.508;10.476;2023-06-14T09:54:49;4.55;;;2.38;;
75542;SDS011;64129;53.508;10.476;2023-06-14T09:57:16;3.17;;;2.60;;
75542;SDS011;64129;53.508;10.476;2023-06-14T09:59:47;3.13;;;2.38;;
75542;SDS011;64129;53.508;10.476;2023-06-14T10:02:18;3.50;;;2.40;;
75542;SDS011;64129;53.508;10.476;2023-06-14T10:07:35;3.55;;;2.40;;
75542;SDS011;64129;53.508;10.476;2023-06-14T10:10:06;4.00;;;2.28;;
75542;SDS011;64129;53.508;10.476;2023-06-14T10:12:33;5.10;;;2.22;;
75542;SDS011;64129;53.508;10.476;2023-06-14T10:15:00;5.00;;;2.88;;
75542;SDS011;64129;53.508;10.476;2023-06-14T10:17:39;3.72;;;2.20;;
75542;SDS011;64129;53.508;10.476;2023-06-14T10:20:16;2.78;;;2.20;;
75542;SDS011;64129;53.508;10.476;2023-06-14T10:22:56;3.13;;;2.40;;
75542;SDS011;64129;53.508;10.476;2023-06-14T10:25:31;4.85;;;2.33;;
75542;SDS011;64129;53.508;10.476;2023-06-14T10:33:34;5.55;;;2.30;;
75542;SDS011;64129;53.508;10.476;2023-06-14T10:36:25;4.00;;;2.10;;
75542;SDS011;64129;53.508;10.476;2023-06-14T10:41:36;3.70;;;2.22;;
75542;SDS011;64129;53.508;10.476;2023-06-14T10:46:40;3.45;;;2.13;;
75542;SDS011;64129;53.508;10.476;2023-06-14T10:49:11;3.75;;;2.33;;
75542;SDS011;64129;53.508;10.476;2023-06-14T10:51:39;3.88;;;2.20;;
75542;SDS011;64129;53.508;10.476;2023-06-14T10:54:12;2.63;;;2.25;;
75542;SDS011;64129;53.508;10.476;2023-06-14T10:56:49;3.05;;;2.08;;
75542;SDS011;64129;53.508;10.476;2023-06-14T10:59:17;5.03;;;2.28;;
75542;SDS011;64129;53.508;10.476;2023-06-14T11:04:26;3.33;;;2.53;;
75542;SDS011;64129;53.508;10.476;2023-06-14T11:13:06;4.03;;;2.88;;
75542;SDS011;64129;53.508;10.476;2023-06-14T11:15:34;2.55;;;2.28;;
75542;SDS011;64129;53.508;10.476;2023-06-14T11:18:06;5.15;;;2.58;;
75542;SDS011;64129;53.508;10.476;2023-06-14T11:20:36;3.65;;;2.53;;
75542;SDS011;64129;53.508;10.476;2023-06-14T11:23:03;6.07;;;2.63;;
75542;SDS011;64129;53.508;10.476;2023-06-14T11:25:30;4.22;;;2.90;;
75542;SDS011;64129;53.508;10.476;2023-06-14T11:27:56;5.85;;;2.88;;
75542;SDS011;64129;53.508;10.476;2023-06-14T11:30:23;6.43;;;2.88;;
75542;SDS011;64129;53.508;10.476;2023-06-14T11:32:52;3.38;;;2.65;;
75542;SDS011;64129;53.508;10.476;2023-06-14T11:35:23;4.47;;;2.95;;
75542;SDS011;64129;53.508;10.476;2023-06-14T11:37:54;4.15;;;2.40;;
75542;SDS011;64129;53.508;10.476;2023-06-14T11:40:25;5.43;;;2.67;;
75542;SDS011;64129;53.508;10.476;2023-06-14T11:42:59;4.18;;;2.90;;
75542;SDS011;64129;53.508;10.476;2023-06-14T11:45:26;5.18;;;2.63;;
75542;SDS011;64129;53.508;10.476;2023-06-14T11:47:57;4.88;;;2.83;;
75542;SDS011;64129;53.508;10.476;2023-06-14T11:50:25;4.15;;;2.65;;
75542;SDS011;64129;53.508;10.476;2023-06-14T11:52:53;4.82;;;2.72;;
75542;SDS011;64129;53.508;10.476;2023-06-14T11:55:23;3.97;;;2.33;;
75542;SDS011;64129;53.508;10.476;2023-06-14T11:57:50;4.70;;;2.67;;
75542;SDS011;64129;53.508;10.476;2023-06-14T12:00:18;4.05;;;2.30;;
75542;SDS011;64129;53.508;10.476;2023-06-14T12:02:53;4.03;;;2.47;;
75542;SDS011;64129;53.508;10.476;2023-06-14T12:05:24;4.72;;;2.60;;
75542;SDS011;64129;53.508;10.476;2023-06-14T12:07:58;4.70;;;3.00;;
75542;SDS011;64129;53.508;10.476;2023-06-14T12:10:26;6.40;;;2.90;;
75542;SDS011;64129;53.508;10.476;2023-06-14T12:12:56;5.68;;;2.60;;
75542;SDS011;64129;53.508;10.476;2023-06-14T12:15:29;3.30;;;2.13;;
75542;SDS011;64129;53.508;10.476;2023-06-14T12:17:56;4.53;;;2.40;;
75542;SDS011;64129;53.508;10.476;2023-06-14T12:20:28;2.60;;;2.13;;
75542;SDS011;64129;53.508;10.476;2023-06-14T12:23:02;4.68;;;2.85;;
75542;SDS011;64129;53.508;10.476;2023-06-14T12:25:30;3.80;;;2.28;;
75542;SDS011;64129;53.508;10.476;2023-06-14T12:28:06;2.50;;;2.10;;
75542;SDS011;64129;53.508;10.476;2023-06-14T12:30:33;6.85;;;2.30;;
75542;SDS011;64129;53.508;10.476;2023-06-14T12:33:02;4.35;;;2.33;;
75542;SDS011;64129;53.508;10.476;2023-06-14T12:35:31;4.93;;;2.35;;
75542;SDS011;64129;53.508;10.476;2023-06-14T12:37:58;5.00;;;2.33;;
75542;SDS011;64129;53.508;10.476;2023-06-14T12:40:25;4.00;;;2.00;;
75542;SDS011;64129;53.508;10.476;2023-06-14T12:42:52;5.13;;;2.30;;
75542;SDS011;64129;53.508;10.476;2023-06-14T12:45:19;4.50;;;2.25;;
75542;SDS011;64129;53.508;10.476;2023-06-14T12:47:46;3.10;;;2.20;;
75542;SDS011;64129;53.508;10.476;2023-06-14T12:50:12;3.40;;;2.35;;
75542;SDS011;64129;53.508;10.476;2023-06-14T12:52:39;5.03;;;2.13;;
75542;SDS011;64129;53.508;10.476;2023-06-14T12:55:05;5.72;;;2.45;;
75542;SDS011;64129;53.508;10.476;2023-06-14T12:57:33;2.97;;;2.30;;
75542;SDS011;64129;53.508;10.476;2023-06-14T13:00:01;3.30;;;2.00;;
75542;SDS011;64129;53.508;10.476;2023-06-14T13:02:28;4.70;;;2.17;;
75542;SDS011;64129;53.508;10.476;2023-06-14T13:04:55;3.88;;;2.08;;
75542;SDS011;64129;53.508;10.476;2023-06-14T13:07:22;4.13;;;2.47;;
75542;SDS011;64129;53.508;10.476;2023-06-14T13:09:48;3.83;;;2.13;;
75542;SDS011;64129;53.508;10.476;2023-06-14T13:12:15;3.00;;;2.30;;
75542;SDS011;64129;53.508;10.476;2023-06-14T13:14:42;2.60;;;2.33;;
75542;SDS011;64129;53.508;10.476;2023-06-14T13:17:09;4.70;;;2.30;;
75542;SDS011;64129;53.508;10.476;2023-06-14T13:19:36;3.40;;;2.25;;
75542;SDS011;64129;53.508;10.476;2023-06-14T13:22:03;4.68;;;2.17;;
75542;SDS011;64129;53.508;10.476;2023-06-14T13:24:30;3.40;;;2.35;;
75542;SDS011;64129;53.508;10.476;2023-06-14T13:26:57;4.13;;;2.20;;
75542;SDS011;64129;53.508;10.476;2023-06-14T13:29:24;3.60;;;2.33;;
75542;SDS011;64129;53.508;10.476;2023-06-14T13:31:51;4.20;;;2.20;;
75542;SDS011;64129;53.508;10.476;2023-06-14T13:34:18;5.13;;;2.30;;
75542;SDS011;64129;53.508;10.476;2023-06-14T13:36:44;3.17;;;2.17;;
75542;SDS011;64129;53.508;10.476;2023-06-14T13:39:11;4.20;;;2.30;;
75542;SDS011;64129;53.508;10.476;2023-06-14T13:41:38;3.42;;;2.08;;
75542;SDS011;64129;53.508;10.476;2023-06-14T13:44:05;3.33;;;2.08;;
75542;SDS011;64129;53.508;10.476;2023-06-14T13:46:31;4.28;;;2.20;;
75542;SDS011;64129;53.508;10.476;2023-06-14T13:48:58;5.07;;;1.88;;
75542;SDS011;64129;53.508;10.476;2023-06-14T13:51:24;2.95;;;2.40;;
75542;SDS011;64129;53.508;10.476;2023-06-14T13:53:53;3.20;;;2.30;;
75542;SDS011;64129;53.508;10.476;2023-06-14T13:56:20;3.33;;;2.40;;
75542;SDS011;64129;53.508;10.476;2023-06-14T13:58:48;4.20;;;2.40;;
75542;SDS011;64129;53.508;10.476;2023-06-14T14:01:15;4.82;;;2.10;;
75542;SDS011;64129;53.508;10.476;2023-06-14T14:03:44;2.95;;;2.22;;
75542;SDS011;64129;53.508;10.476;2023-06-14T14:06:11;2.67;;;1.98;;
75542;SDS011;64129;53.508;10.476;2023-06-14T14:08:38;3.30;;;2.13;;
75542;SDS011;64129;53.508;10.476;2023-06-14T14:11:05;4.22;;;2.22;;
75542;SDS011;64129;53.508;10.476;2023-06-14T14:13:32;2.53;;;2.33;;
75542;SDS011;64129;53.508;10.476;2023-06-14T14:15:59;5.72;;;2.10;;
75542;SDS011;64129;53.508;10.476;2023-06-14T14:18:25;4.03;;;2.58;;
75542;SDS011;64129;53.508;10.476;2023-06-14T14:20:52;4.45;;;2.28;;
75542;SDS011;64129;53.508;10.476;2023-06-14T14:23:18;5.22;;;2.30;;
75542;SDS011;64129;53.508;10.476;2023-06-14T14:25:48;4.13;;;2.35;;
75542;SDS011;64129;53.508;10.476;2023-06-14T14:28:14;3.60;;;2.20;;
75542;SDS011;64129;53.508;10.476;2023-06-14T14:30:42;3.33;;;2.15;;
75542;SDS011;64129;53.508;10.476;2023-06-14T14:33:08;4.82;;;2.40;;
75542;SDS011;64129;53.508;10.476;2023-06-14T14:35:37;4.00;;;2.45;;
75542;SDS011;64129;53.508;10.476;2023-06-14T14:38:04;5.05;;;1.98;;
75542;SDS011;64129;53.508;10.476;2023-06-14T14:40:31;4.45;;;2.33;;
75542;SDS011;64129;53.508;10.476;2023-06-14T14:42:57;4.28;;;2.40;;
75542;SDS011;64129;53.508;10.476;2023-06-14T14:45:24;4.28;;;2.00;;
75542;SDS011;64129;53.508;10.476;2023-06-14T14:47:50;4.05;;;2.20;;
75542;SDS011;64129;53.508;10.476;2023-06-14T14:50:18;3.65;;;2.03;;
75542;SDS011;64129;53.508;10.476;2023-06-14T14:52:44;6.20;;;2.30;;
75542;SDS011;64129;53.508;10.476;2023-06-14T14:55:11;3.60;;;2.33;;
75542;SDS011;64129;53.508;10.476;2023-06-14T14:57:38;4.20;;;2.03;;
75542;SDS011;64129;53.508;10.476;2023-06-14T15:00:05;3.95;;;2.30;;
75542;SDS011;64129;53.508;10.476;2023-06-14T15:02:32;3.92;;;2.25;;
75542;SDS011;64129;53.508;10.476;2023-06-14T15:04:58;3.92;;;2.22;;
75542;SDS011;64129;53.508;10.476;2023-06-14T15:07:27;5.03;;;2.30;;
75542;SDS011;64129;53.508;10.476;2023-06-14T15:09:54;5.63;;;2.00;;
75542;SDS011;64129;53.508;10.476;2023-06-14T15:12:21;5.40;;;2.13;;